KTTD/TTD METAR and TAF weather

Enter ICAO airport designator
Station Type Date Time Source
KTTD METAR 2019/04/19 07:53 UTC NOAA

KTTD 190753Z AUTO 26003KT 10SM CLR 16/11 A3005 RMK AO2 SLP174 T01560106 402500067


Station Type Date Time Source
KTTD Decoded METAR 2019/04/19 07:53 UTC NOAA

PORTLAND-TROUTDALE AIRPORT, OR, United States (KTTD) 45-33N 122-25W 14M
Apr 19, 2019 - 03:53 AM EDT / 2019.04.19 0753 UTC
Wind: from the W (260 degrees) at 3 MPH (3 KT):0
Visibility: 10 mile(s):0
Sky conditions: clear
Temperature: 60.1 F (15.6 C)
Dew Point: 51.1 F (10.6 C)
Relative Humidity: 72%
Pressure (altimeter): 30.05 in. Hg (1017 hPa)
ob: KTTD 190753Z AUTO 26003KT 10SM CLR 16/11 A3005 RMK AO2 SLP174 T01560106 402500067
cycle: 8

Station Type Date Time Source
KTTD TAF 2019/04/19 06:30 UTC NOAA

TAF KTTD 190528Z 1906/2006 VRB03KT P6SM SCT060 BKN140
FM191400 19007KT P6SM SCT025 BKN060
TEMPO 1916/1920 -RA
FM192000 VRB03KT 6SM -RADZ BR SCT015 OVC025
FM200200 29004KT P6SM -SHRA BKN025 BKN035

Example: see airport list